createdAt,value
2022-11-29T00:01:03.095Z,9.87
2022-11-29T00:03:31.390Z,7.10
2022-11-29T00:06:07.049Z,7.57
2022-11-29T00:08:35.282Z,7.53
2022-11-29T00:11:06.643Z,7.90
2022-11-29T00:13:35.690Z,7.40
2022-11-29T00:16:05.310Z,7.27
2022-11-29T00:18:33.158Z,8.73
2022-11-29T00:21:01.222Z,9.07
2022-11-29T00:23:28.845Z,7.67
2022-11-29T00:25:56.493Z,7.00
2022-11-29T00:28:24.135Z,7.60
2022-11-29T00:30:53.321Z,6.57
2022-11-29T00:33:21.041Z,6.20
2022-11-29T00:35:48.714Z,7.77
2022-11-29T00:38:16.361Z,6.50
2022-11-29T00:40:43.967Z,6.70
2022-11-29T00:43:11.575Z,7.27
2022-11-29T00:45:39.282Z,7.60
2022-11-29T00:48:08.416Z,7.37
2022-11-29T00:50:36.022Z,5.60
2022-11-29T00:53:03.723Z,6.90
2022-11-29T00:55:32.448Z,6.13
2022-11-29T00:58:00.255Z,5.77
2022-11-29T01:00:28.151Z,5.80
2022-11-29T01:02:55.804Z,5.10
2022-11-29T01:05:25.032Z,5.13
2022-11-29T01:07:52.692Z,5.23
2022-11-29T01:10:20.657Z,5.20
2022-11-29T01:12:48.354Z,5.90
2022-11-29T01:15:16.107Z,5.00
2022-11-29T01:17:43.680Z,4.60
2022-11-29T01:20:13.445Z,5.20
2022-11-29T01:22:42.459Z,5.03
2022-11-29T01:25:12.482Z,4.70
2022-11-29T01:27:40.440Z,4.67
2022-11-29T01:30:11.073Z,4.53
2022-11-29T01:32:39.162Z,4.73
2022-11-29T01:35:07.828Z,4.53
2022-11-29T01:37:35.504Z,4.33
2022-11-29T01:40:05.374Z,4.17
2022-11-29T01:42:33.248Z,4.03
2022-11-29T01:45:08.204Z,4.00
2022-11-29T01:47:47.344Z,6.77
2022-11-29T01:50:15.300Z,4.10
2022-11-29T01:52:43.173Z,5.03
2022-11-29T01:55:13.351Z,4.40
2022-11-29T01:57:42.517Z,4.60
2022-11-29T02:00:12.886Z,5.40
2022-11-29T02:02:43.557Z,4.33
2022-11-29T02:05:13.643Z,5.17
2022-11-29T02:07:44.544Z,4.30
2022-11-29T02:10:16.458Z,4.33
2022-11-29T02:12:59.941Z,4.37
2022-11-29T02:15:40.190Z,4.50
2022-11-29T02:18:12.150Z,4.63
2022-11-29T02:21:03.826Z,4.47
2022-11-29T02:24:07.465Z,4.93
2022-11-29T02:27:14.154Z,5.87
2022-11-29T02:30:07.904Z,6.70
2022-11-29T02:33:03.585Z,5.03
2022-11-29T02:35:49.782Z,4.80
2022-11-29T02:38:34.111Z,5.27
2022-11-29T02:41:19.832Z,4.77
2022-11-29T02:44:03.919Z,4.67
2022-11-29T02:46:52.702Z,4.77
2022-11-29T02:49:32.528Z,4.47
2022-11-29T02:52:02.994Z,4.27
2022-11-29T02:54:39.784Z,4.63
2022-11-29T02:57:20.474Z,4.37
2022-11-29T02:59:55.924Z,3.60
2022-11-29T03:02:32.648Z,3.73
2022-11-29T03:05:10.666Z,4.20
2022-11-29T03:07:46.166Z,3.07
2022-11-29T03:10:24.434Z,3.83
2022-11-29T03:12:54.740Z,4.30
2022-11-29T03:15:30.002Z,4.57
2022-11-29T03:18:09.850Z,3.50
2022-11-29T03:20:55.061Z,3.83
2022-11-29T03:23:26.747Z,4.10
2022-11-29T03:26:00.369Z,3.17
2022-11-29T03:28:32.260Z,3.33
2022-11-29T03:31:07.843Z,3.47
2022-11-29T03:33:42.747Z,4.13
2022-11-29T03:36:19.059Z,4.37
2022-11-29T03:38:48.524Z,4.13
2022-11-29T03:41:26.261Z,4.13
2022-11-29T03:44:00.649Z,3.70
2022-11-29T03:46:33.030Z,4.17
2022-11-29T03:49:04.680Z,4.27
2022-11-29T03:51:44.816Z,3.50
2022-11-29T03:54:17.561Z,3.90
2022-11-29T03:56:45.756Z,3.47
2022-11-29T03:59:41.624Z,3.50
2022-11-29T04:02:34.722Z,3.70
2022-11-29T04:05:30.360Z,4.00
2022-11-29T04:08:08.854Z,3.90
2022-11-29T04:10:58.164Z,3.30
2022-11-29T04:14:11.762Z,3.53
2022-11-29T04:17:19.069Z,3.27
2022-11-29T04:20:36.277Z,3.50
2022-11-29T04:23:38.827Z,3.43
2022-11-29T04:26:41.166Z,2.90
2022-11-29T04:29:16.573Z,2.83
2022-11-29T04:32:02.649Z,3.03
2022-11-29T04:34:51.261Z,2.80
2022-11-29T04:37:48.077Z,3.23
2022-11-29T04:40:33.059Z,3.33
2022-11-29T04:43:31.335Z,3.50
2022-11-29T04:46:32.886Z,3.67
2022-11-29T04:49:16.760Z,3.53
2022-11-29T04:52:01.605Z,3.50
2022-11-29T04:54:36.653Z,3.10
2022-11-29T04:57:12.528Z,3.23
2022-11-29T04:59:47.027Z,3.33
2022-11-29T05:02:27.760Z,3.00
2022-11-29T05:05:05.021Z,3.13
2022-11-29T05:07:40.419Z,3.10
2022-11-29T05:10:25.372Z,3.00
2022-11-29T05:13:04.884Z,3.37
2022-11-29T05:16:09.702Z,3.13
2022-11-29T05:19:07.588Z,2.53
2022-11-29T05:21:49.526Z,3.07
2022-11-29T05:24:29.950Z,2.53
2022-11-29T05:27:07.952Z,2.90
2022-11-29T05:29:42.959Z,3.03
2022-11-29T05:32:26.948Z,3.60
2022-11-29T05:35:20.428Z,3.73
2022-11-29T05:37:51.473Z,4.10
2022-11-29T05:40:37.220Z,3.10
2022-11-29T05:43:19.703Z,3.20
2022-11-29T05:45:56.592Z,2.63
2022-11-29T05:48:32.479Z,2.40
2022-11-29T05:51:12.350Z,2.20
2022-11-29T05:53:46.956Z,3.30
2022-11-29T05:56:30.091Z,3.03
2022-11-29T05:59:02.064Z,2.77
2022-11-29T06:01:36.189Z,2.70
2022-11-29T06:04:14.582Z,2.53
2022-11-29T06:06:48.737Z,2.60
2022-11-29T06:09:22.960Z,2.70
2022-11-29T06:11:56.632Z,2.50
2022-11-29T06:14:55.416Z,2.70
2022-11-29T06:17:43.157Z,3.40
2022-11-29T06:20:27.762Z,2.93
2022-11-29T06:23:28.959Z,2.90
2022-11-29T06:26:11.948Z,3.20
2022-11-29T06:28:55.725Z,2.77
2022-11-29T06:31:28.331Z,3.00
2022-11-29T06:34:07.403Z,2.43
2022-11-29T06:36:41.056Z,3.13
2022-11-29T06:39:10.861Z,2.40
2022-11-29T06:41:38.735Z,2.93
2022-11-29T06:44:07.389Z,3.40
2022-11-29T06:46:45.687Z,2.80
2022-11-29T06:49:23.495Z,3.30
2022-11-29T06:52:03.592Z,2.47
2022-11-29T06:54:43.197Z,2.60
2022-11-29T06:57:19.678Z,2.37
2022-11-29T07:00:02.405Z,2.63
2022-11-29T07:02:45.612Z,2.83
2022-11-29T07:05:24.748Z,2.20
2022-11-29T07:07:55.077Z,2.80
2022-11-29T07:10:23.900Z,3.47
2022-11-29T07:12:52.494Z,2.87
2022-11-29T07:15:22.592Z,3.23
2022-11-29T07:18:03.276Z,3.17
2022-11-29T07:20:40.395Z,3.73
2022-11-29T07:23:17.519Z,3.23
2022-11-29T07:25:56.882Z,4.33
2022-11-29T07:28:36.073Z,2.73
2022-11-29T07:31:10.480Z,2.70
2022-11-29T07:33:49.526Z,2.63
2022-11-29T07:36:28.170Z,3.33
2022-11-29T07:39:04.628Z,3.50
2022-11-29T07:41:43.349Z,2.70
2022-11-29T07:44:18.571Z,2.50
2022-11-29T07:46:46.281Z,4.10
2022-11-29T07:49:13.937Z,2.80
2022-11-29T07:51:43.064Z,3.30
2022-11-29T07:54:11.699Z,3.17
2022-11-29T07:56:39.310Z,3.63
2022-11-29T07:59:10.950Z,2.60
2022-11-29T08:01:38.597Z,3.37
2022-11-29T08:04:06.851Z,2.73
2022-11-29T08:06:35.145Z,4.77
2022-11-29T08:09:06.807Z,2.83
2022-11-29T08:11:34.675Z,3.37
2022-11-29T08:14:03.632Z,3.07
2022-11-29T08:16:31.330Z,4.60
2022-11-29T08:18:59.135Z,3.00
2022-11-29T08:21:27.201Z,6.53
2022-11-29T08:23:54.913Z,3.90
2022-11-29T08:26:28.229Z,3.87
2022-11-29T08:28:59.019Z,3.10
2022-11-29T08:31:26.704Z,3.57
2022-11-29T08:33:54.298Z,4.70
2022-11-29T08:36:22.380Z,5.10
2022-11-29T08:38:52.831Z,3.90
2022-11-29T08:41:26.211Z,3.23
2022-11-29T08:43:53.835Z,3.47
2022-11-29T08:46:21.436Z,2.87
2022-11-29T08:48:49.563Z,3.20
2022-11-29T08:51:17.239Z,2.67
2022-11-29T08:53:45.994Z,4.03
2022-11-29T08:57:04.521Z,3.13
2022-11-29T08:59:04.853Z,5.37
2022-11-29T09:01:32.581Z,3.70
2022-11-29T09:04:07.820Z,5.47
2022-11-29T09:06:39.371Z,5.83
2022-11-29T09:09:07.455Z,3.03
2022-11-29T09:11:37.091Z,3.20
2022-11-29T09:14:08.179Z,3.00
2022-11-29T09:16:38.298Z,3.20
2022-11-29T09:19:06.687Z,4.50
2022-11-29T09:21:36.662Z,4.50
2022-11-29T09:24:06.420Z,3.10
2022-11-29T09:26:35.724Z,4.63
2022-11-29T09:29:06.768Z,3.87
2022-11-29T09:31:35.200Z,2.90
2022-11-29T09:34:03.146Z,5.37
2022-11-29T09:36:30.957Z,3.03
2022-11-29T09:38:59.072Z,3.17
2022-11-29T09:42:09.823Z,3.27
2022-11-29T09:44:50.497Z,3.83
2022-11-29T09:47:32.874Z,3.23
2022-11-29T09:50:17.700Z,4.40
2022-11-29T09:52:52.085Z,3.93
2022-11-29T09:55:39.238Z,3.03
2022-11-29T09:58:11.547Z,4.90
2022-11-29T10:00:51.220Z,3.30
2022-11-29T10:03:25.373Z,3.50
2022-11-29T10:05:58.329Z,3.00
2022-11-29T10:08:32.546Z,3.40
2022-11-29T10:11:15.255Z,3.40
2022-11-29T10:13:48.351Z,3.47
2022-11-29T10:16:24.966Z,2.77
2022-11-29T10:18:59.472Z,3.40
2022-11-29T10:21:34.038Z,3.10
2022-11-29T10:24:05.568Z,2.77
2022-11-29T10:26:35.518Z,2.40
2022-11-29T10:29:03.598Z,2.83
2022-11-29T10:31:40.118Z,2.67
2022-11-29T10:34:14.120Z,3.63
2022-11-29T10:36:45.064Z,3.27
2022-11-29T10:39:17.143Z,2.60
2022-11-29T10:41:45.239Z,3.17
2022-11-29T10:44:15.434Z,3.17
2022-11-29T10:46:44.433Z,3.97
2022-11-29T10:49:16.001Z,3.53
2022-11-29T10:51:43.971Z,2.30
2022-11-29T10:54:26.480Z,2.33
2022-11-29T10:56:56.737Z,2.20
2022-11-29T10:59:25.958Z,1.53
2022-11-29T11:01:55.798Z,3.33
2022-11-29T11:04:29.190Z,2.30
2022-11-29T11:07:01.027Z,2.20
2022-11-29T11:09:37.363Z,2.37
2022-11-29T11:12:08.032Z,3.00
2022-11-29T11:14:38.631Z,2.33
2022-11-29T11:17:26.046Z,2.40
2022-11-29T11:20:00.761Z,2.70
2022-11-29T11:22:29.929Z,2.10
2022-11-29T11:25:00.683Z,2.00
2022-11-29T11:27:33.773Z,1.67
2022-11-29T11:30:02.843Z,1.40
2022-11-29T11:32:31.860Z,2.00
2022-11-29T11:35:01.178Z,1.93
2022-11-29T11:37:30.617Z,1.63
2022-11-29T11:40:00.670Z,2.27
2022-11-29T11:42:39.378Z,1.80
2022-11-29T11:45:26.655Z,5.27
2022-11-29T11:47:58.642Z,3.27
2022-11-29T11:50:30.299Z,2.00
2022-11-29T11:52:59.479Z,1.63
2022-11-29T11:55:32.269Z,2.73
2022-11-29T11:58:10.367Z,1.70
2022-11-29T12:01:03.353Z,2.87
2022-11-29T12:03:50.917Z,1.50
2022-11-29T12:06:30.145Z,1.93
2022-11-29T12:09:04.693Z,2.37
2022-11-29T12:11:39.095Z,2.23
2022-11-29T12:14:09.007Z,2.33
2022-11-29T12:16:40.211Z,1.37
2022-11-29T12:19:24.482Z,1.40
2022-11-29T12:21:55.971Z,1.57
2022-11-29T12:24:30.454Z,1.80
2022-11-29T12:27:04.412Z,2.00
2022-11-29T12:29:34.731Z,1.43
2022-11-29T12:32:15.602Z,1.60
2022-11-29T12:35:00.762Z,1.57
2022-11-29T12:37:36.165Z,1.90
2022-11-29T12:40:07.718Z,2.33
2022-11-29T12:42:50.192Z,2.07
2022-11-29T12:45:39.338Z,2.30
2022-11-29T12:48:17.311Z,2.33
2022-11-29T12:50:59.498Z,1.53
2022-11-29T12:53:45.866Z,1.77
2022-11-29T12:56:17.068Z,1.90
2022-11-29T12:58:57.316Z,5.10
2022-11-29T13:01:34.533Z,4.20
2022-11-29T13:04:13.115Z,2.87
2022-11-29T13:06:50.486Z,2.17
2022-11-29T13:09:33.903Z,2.37
2022-11-29T13:12:07.425Z,1.60
2022-11-29T13:14:44.277Z,2.43
2022-11-29T13:17:25.298Z,1.80
2022-11-29T13:19:57.098Z,3.97
2022-11-29T13:22:31.657Z,2.83
2022-11-29T13:25:02.927Z,3.10
2022-11-29T13:27:34.196Z,2.13
2022-11-29T13:30:02.522Z,1.80
2022-11-29T13:32:36.263Z,2.50
2022-11-29T13:35:09.556Z,2.20
2022-11-29T13:37:43.510Z,2.90
2022-11-29T13:40:24.635Z,2.43
2022-11-29T13:43:02.229Z,2.57
2022-11-29T13:45:38.513Z,3.53
2022-11-29T13:48:32.816Z,3.53
2022-11-29T13:51:30.760Z,2.80
2022-11-29T13:54:03.096Z,3.00
2022-11-29T13:56:36.707Z,4.17
2022-11-29T13:59:09.641Z,3.43
2022-11-29T14:01:51.471Z,3.87
2022-11-29T14:04:33.287Z,4.50
2022-11-29T14:07:11.251Z,5.27
2022-11-29T14:09:59.399Z,6.03
2022-11-29T14:12:37.644Z,4.53
2022-11-29T14:15:18.754Z,4.40
2022-11-29T14:17:52.438Z,4.70
2022-11-29T14:20:55.665Z,5.03
2022-11-29T14:23:43.816Z,5.77
2022-11-29T14:26:31.403Z,5.17
2022-11-29T14:29:00.143Z,7.13
2022-11-29T14:31:51.178Z,6.83
2022-11-29T14:34:46.830Z,6.27
2022-11-29T14:37:48.441Z,7.13
2022-11-29T14:40:30.011Z,6.93
2022-11-29T14:42:59.356Z,7.70
2022-11-29T14:45:29.983Z,7.60
2022-11-29T14:47:59.273Z,7.67
2022-11-29T14:50:33.283Z,8.03
2022-11-29T14:53:01.978Z,8.27
2022-11-29T14:55:36.799Z,7.20
2022-11-29T14:58:20.904Z,8.27
2022-11-29T15:01:09.515Z,8.47
2022-11-29T15:03:43.491Z,9.50
2022-11-29T15:06:16.185Z,8.87
2022-11-29T15:08:55.077Z,7.90
2022-11-29T15:11:32.887Z,8.20
2022-11-29T15:14:05.906Z,8.10
2022-11-29T15:16:45.557Z,9.27
2022-11-29T15:19:46.406Z,8.73
2022-11-29T15:22:18.752Z,9.60
2022-11-29T15:24:54.850Z,9.67
2022-11-29T15:27:22.959Z,8.03
2022-11-29T15:29:52.773Z,8.27
2022-11-29T15:32:26.786Z,8.77
2022-11-29T15:34:56.850Z,8.37
2022-11-29T15:37:39.734Z,9.00
2022-11-29T15:40:12.720Z,9.67
2022-11-29T15:42:43.430Z,9.00
2022-11-29T15:45:31.546Z,9.97
2022-11-29T15:48:14.479Z,10.07
2022-11-29T15:50:47.458Z,11.47
2022-11-29T15:53:19.519Z,10.23
2022-11-29T15:55:49.531Z,9.83
2022-11-29T15:58:18.421Z,9.80
2022-11-29T16:00:50.470Z,11.03
2022-11-29T16:03:25.144Z,11.93
2022-11-29T16:06:01.114Z,12.47
2022-11-29T16:08:32.557Z,11.90
2022-11-29T16:11:01.413Z,10.97
2022-11-29T16:13:37.665Z,13.50
2022-11-29T16:16:15.729Z,12.50
2022-11-29T16:18:45.906Z,11.53
2022-11-29T16:21:26.124Z,13.40
2022-11-29T16:23:54.605Z,14.70
2022-11-29T16:26:27.467Z,13.13
2022-11-29T16:28:57.845Z,12.13
2022-11-29T16:31:34.260Z,11.73
2022-11-29T16:34:08.974Z,15.50
2022-11-29T16:36:40.448Z,15.37
2022-11-29T16:39:17.409Z,14.30
2022-11-29T16:41:45.083Z,14.57
2022-11-29T16:45:00.795Z,16.53
2022-11-29T16:47:31.468Z,18.77
2022-11-29T16:50:15.193Z,20.57
2022-11-29T16:52:43.295Z,18.93
2022-11-29T16:55:10.961Z,20.70
2022-11-29T16:57:39.156Z,21.67
2022-11-29T17:00:22.449Z,21.95
2022-11-29T17:02:51.542Z,19.83
2022-11-29T17:05:19.152Z,20.37
2022-11-29T17:07:47.344Z,20.20
2022-11-29T17:10:19.688Z,19.37
2022-11-29T17:12:48.434Z,20.27
2022-11-29T17:15:16.534Z,20.00
2022-11-29T17:17:44.439Z,21.03
2022-11-29T17:20:14.467Z,19.43
2022-11-29T17:22:42.505Z,20.30
2022-11-29T17:25:13.419Z,18.67
2022-11-29T17:27:41.553Z,21.13
2022-11-29T17:30:11.376Z,18.70
2022-11-29T17:32:39.170Z,21.57
2022-11-29T17:35:09.146Z,20.97
2022-11-29T17:37:59.653Z,21.97
2022-11-29T17:40:27.393Z,18.50
2022-11-29T17:43:45.833Z,19.67
2022-11-29T17:46:15.810Z,19.70
2022-11-29T17:49:01.317Z,18.53
2022-11-29T17:54:18.201Z,20.00
2022-11-29T17:56:45.989Z,19.47
2022-11-29T17:59:13.813Z,19.60
2022-11-29T18:05:12.811Z,18.67
2022-11-29T18:08:19.927Z,20.57
2022-11-29T18:11:20.067Z,18.13
2022-11-29T18:14:06.227Z,18.43
2022-11-29T18:28:04.292Z,19.60
2022-11-29T18:30:32.008Z,18.90
2022-11-29T18:32:59.787Z,20.57
2022-11-29T18:35:28.006Z,19.83
2022-11-29T18:38:14.853Z,21.60
2022-11-29T18:40:45.532Z,18.13
2022-11-29T18:43:17.654Z,18.30
2022-11-29T18:45:45.568Z,20.47
2022-11-29T18:48:13.226Z,20.70
2022-11-29T18:50:40.842Z,18.77
2022-11-29T18:53:08.469Z,19.03
2022-11-29T18:55:37.883Z,21.10
2022-11-29T18:58:07.902Z,18.63
2022-11-29T19:00:36.868Z,19.50
2022-11-29T19:03:04.740Z,20.53
2022-11-29T19:05:32.357Z,17.87
2022-11-29T19:08:00.023Z,20.53
2022-11-29T19:10:27.736Z,19.80
2022-11-29T19:12:55.683Z,18.70
2022-11-29T19:15:23.262Z,18.53
2022-11-29T19:17:52.243Z,21.30
2022-11-29T19:20:48.340Z,18.53
2022-11-29T19:23:24.458Z,22.17
2022-11-29T19:25:54.871Z,19.63
2022-11-29T19:28:35.062Z,20.40
2022-11-29T19:31:12.252Z,20.97
2022-11-29T19:33:46.980Z,20.13
2022-11-29T19:36:34.709Z,22.70
2022-11-29T19:39:17.982Z,20.57
2022-11-29T19:41:54.044Z,20.67
2022-11-29T19:44:48.326Z,20.23
2022-11-29T19:47:20.431Z,20.70
2022-11-29T19:49:49.696Z,21.73
2022-11-29T19:52:17.576Z,19.03
2022-11-29T19:54:45.178Z,20.57
2022-11-29T19:57:16.971Z,20.40
2022-11-29T19:59:47.801Z,18.97
2022-11-29T20:02:18.128Z,20.57
2022-11-29T20:04:49.020Z,21.27
2022-11-29T20:07:19.974Z,20.57
2022-11-29T20:09:49.897Z,20.93
2022-11-29T20:12:26.611Z,19.07
2022-11-29T20:14:54.241Z,18.30
2022-11-29T20:17:26.425Z,18.03
2022-11-29T20:19:54.203Z,20.03
2022-11-29T20:22:23.248Z,20.73
2022-11-29T20:24:50.989Z,21.77
2022-11-29T20:27:23.836Z,19.27
2022-11-29T20:29:51.463Z,21.47
2022-11-29T20:32:20.037Z,18.67
2022-11-29T20:34:48.406Z,17.70
2022-11-29T20:37:44.252Z,21.17
2022-11-29T20:40:16.903Z,19.43
2022-11-29T20:43:04.257Z,18.67
2022-11-29T20:45:32.392Z,21.10
2022-11-29T20:48:05.500Z,18.43
2022-11-29T20:50:33.900Z,19.33
2022-11-29T20:53:15.578Z,17.93
2022-11-29T20:55:47.889Z,17.67
2022-11-29T20:58:16.096Z,19.40
2022-11-29T21:00:45.805Z,19.80
2022-11-29T21:03:16.043Z,17.67
2022-11-29T21:05:43.759Z,19.30
2022-11-29T21:08:14.055Z,18.80
2022-11-29T21:10:41.768Z,19.30
2022-11-29T21:13:10.964Z,18.47
2022-11-29T21:15:39.044Z,20.80
2022-11-29T21:18:07.459Z,19.43
2022-11-29T21:20:35.590Z,19.90
2022-11-29T21:23:10.022Z,17.33
2022-11-29T21:25:50.703Z,19.10
2022-11-29T21:28:18.838Z,19.50
2022-11-29T21:30:46.947Z,19.40
2022-11-29T21:33:15.820Z,19.73
2022-11-29T21:35:43.461Z,18.90
2022-11-29T21:38:14.247Z,21.10
2022-11-29T21:40:43.321Z,18.07
2022-11-29T21:43:10.930Z,18.53
2022-11-29T21:45:38.542Z,17.60
2022-11-29T21:48:27.502Z,19.20
2022-11-29T21:51:08.748Z,17.87
2022-11-29T21:53:37.990Z,17.87
2022-11-29T21:56:09.796Z,19.70
2022-11-29T21:58:39.279Z,20.57
2022-11-29T22:01:09.204Z,17.53
2022-11-29T22:03:36.870Z,20.63
2022-11-29T22:06:05.768Z,21.03
2022-11-29T22:08:38.813Z,22.50
2022-11-29T22:11:09.205Z,19.77
2022-11-29T22:13:37.125Z,20.93
2022-11-29T22:16:07.097Z,19.50
2022-11-29T22:18:35.026Z,22.30
2022-11-29T22:21:04.075Z,20.30
2022-11-29T22:23:31.887Z,21.70
2022-11-29T22:26:08.736Z,21.63
2022-11-29T22:28:36.923Z,21.70
2022-11-29T22:31:07.275Z,22.43
2022-11-29T22:33:44.114Z,23.37
2022-11-29T22:36:18.924Z,21.73
2022-11-29T22:38:50.153Z,23.93
2022-11-29T22:41:22.136Z,22.50
2022-11-29T22:44:01.679Z,24.87
2022-11-29T22:46:30.464Z,24.03
2022-11-29T22:49:02.267Z,22.23
2022-11-29T22:51:33.075Z,22.83
2022-11-29T22:54:04.320Z,23.87
2022-11-29T22:56:36.276Z,26.13
2022-11-29T23:02:47.798Z,21.40
2022-11-29T23:05:15.527Z,25.93
2022-11-29T23:07:43.196Z,22.27
2022-11-29T23:10:11.707Z,26.00
2022-11-29T23:12:40.692Z,22.87
2022-11-29T23:15:08.670Z,25.30
2022-11-29T23:17:36.288Z,25.17
2022-11-29T23:20:05.215Z,27.63
2022-11-29T23:22:32.887Z,24.30
2022-11-29T23:25:00.469Z,25.10
2022-11-29T23:27:28.145Z,29.27
2022-11-29T23:29:57.086Z,22.47
2022-11-29T23:32:24.709Z,24.43
2022-11-29T23:34:52.345Z,19.47
2022-11-29T23:37:19.961Z,21.43
2022-11-29T23:39:47.597Z,23.17
2022-11-29T23:42:15.441Z,21.03
2022-11-29T23:44:43.046Z,20.50
2022-11-29T23:47:11.974Z,24.13
2022-11-29T23:49:39.836Z,19.87
2022-11-29T23:52:07.520Z,21.23
2022-11-29T23:54:35.110Z,21.30
2022-11-29T23:57:02.719Z,19.53
2022-11-29T23:59:30.329Z,19.80
